ROMMA est une association bénévole à but non lucratif. Votre soutien est indispensable : ADHERER à ROMMA ou FAIRE un DON

Granges-lès-Beaumont - (26, Drôme)

Drôme des Collines (155 m)   Longitude: 04°58'E   Latitude: 45°03'N Station partenaire n°123
 

Détail journalier du     <<     >>

Température Precipitation Humidité Pression Vent Dir Rafale Dir. rafale Ensol.
Heure (°C) (mm) (%) (hPa) (km/h) (km/h) (min)
01:00 12.008010066SO21SO0
02:00 11.708110056SSO16S0
03:00 11.608210065SSO18SSO0
04:00 11.5082100510SSO24SO0
05:00 11.4082100510SSO21SSO0
06:00 11.5080100513SSO27S0
07:00 11.3080100511S26SSO0
08:00 11.1081100610SSO26S0
09:00 11.7078100612SSO32S0
10:00 11.7078100714SSO32SSO0
11:00 12.3078100812S34S0
12:00 13.8074100812SSO27S30
13:00 13.7072100811SSO26S30
14:00 14.806810078SSE19S40
15:00 14.806810078SSE18SE50
16:00 14.106910075SE13S0
17:00 12.407810083NE10SE0
18:00 12.207610093OSO11ENE0
19:00 11.4080100905OSO0
20:00 11.9077101000---0
21:00 11.7078101008S0
22:00 11.707710102SSO13SSO0
23:00 11.208010101SSO8SSO0
minuit 11.707710113SSO13SO0

Graphique du 28-11-2019

 

Serveur OMMA